createdAt,value
2023-04-12T00:02:01.339Z,75.68
2023-04-12T00:04:29.565Z,75.55
2023-04-12T00:06:58.266Z,75.66
2023-04-12T00:09:30.681Z,75.56
2023-04-12T00:11:59.949Z,75.60
2023-04-12T00:14:28.813Z,75.51
2023-04-12T00:16:56.820Z,75.48
2023-04-12T00:19:26.085Z,75.36
2023-04-12T00:21:54.217Z,75.54
2023-04-12T00:24:22.066Z,75.53
2023-04-12T00:26:49.930Z,75.56
2023-04-12T00:29:18.210Z,75.42
2023-04-12T00:31:46.065Z,75.46
2023-04-12T00:34:14.009Z,75.67
2023-04-12T00:36:42.034Z,75.71
2023-04-12T00:39:10.101Z,75.54
2023-04-12T00:41:38.213Z,75.46
2023-04-12T00:44:07.949Z,75.37
2023-04-12T00:46:38.417Z,75.44
2023-04-12T00:49:06.568Z,75.21
2023-04-12T00:51:34.702Z,75.35
2023-04-12T00:54:04.045Z,75.38
2023-04-12T00:56:33.242Z,75.41
2023-04-12T00:59:02.202Z,75.39
2023-04-12T01:01:32.152Z,75.43
2023-04-12T01:04:01.599Z,75.47
2023-04-12T01:06:42.578Z,75.30
2023-04-12T01:09:31.799Z,75.24
2023-04-12T01:12:11.130Z,75.27
2023-04-12T01:14:48.347Z,75.21
2023-04-12T01:17:21.110Z,75.36
2023-04-12T01:20:17.178Z,75.27
2023-04-12T01:22:55.585Z,75.30
2023-04-12T01:25:48.725Z,75.38
2023-04-12T01:28:23.052Z,75.54
2023-04-12T01:30:52.203Z,75.56
2023-04-12T01:33:21.269Z,75.56
2023-04-12T01:35:50.104Z,75.49
2023-04-12T01:38:18.036Z,75.49
2023-04-12T01:40:46.281Z,75.36
2023-04-12T01:43:16.128Z,75.25
2023-04-12T01:45:44.216Z,75.35
2023-04-12T01:48:13.090Z,75.50
2023-04-12T01:50:57.150Z,75.43
2023-04-12T01:53:44.982Z,75.69
2023-04-12T01:56:13.488Z,75.73
2023-04-12T01:58:43.355Z,75.62
2023-04-12T02:01:12.853Z,75.56
2023-04-12T02:03:42.771Z,75.64
2023-04-12T02:06:11.183Z,75.58
2023-04-12T02:08:39.142Z,75.54
2023-04-12T02:11:14.855Z,75.72
2023-04-12T02:13:43.363Z,75.71
2023-04-12T02:16:14.079Z,75.72
2023-04-12T02:18:42.671Z,75.73
2023-04-12T02:21:11.837Z,75.94
2023-04-12T02:23:39.549Z,75.81
2023-04-12T02:26:07.927Z,75.77
2023-04-12T02:28:38.788Z,75.81
2023-04-12T02:31:07.445Z,75.58
2023-04-12T02:33:36.038Z,75.69
2023-04-12T02:36:05.980Z,75.55
2023-04-12T02:38:33.695Z,75.49
2023-04-12T02:41:01.768Z,75.49
2023-04-12T02:43:29.778Z,75.54
2023-04-12T02:45:57.664Z,75.34
2023-04-12T02:48:25.754Z,75.42
2023-04-12T02:50:53.901Z,75.44
2023-04-12T02:53:21.895Z,75.46
2023-04-12T02:55:49.778Z,75.53
2023-04-12T02:58:19.104Z,75.32
2023-04-12T03:00:48.067Z,75.51
2023-04-12T03:03:18.319Z,75.46
2023-04-12T03:05:47.412Z,75.46
2023-04-12T03:08:15.494Z,75.38
2023-04-12T03:10:43.327Z,75.36
2023-04-12T03:13:11.685Z,75.50
2023-04-12T03:15:40.860Z,75.51
2023-04-12T03:18:08.830Z,75.80
2023-04-12T03:20:39.209Z,75.51
2023-04-12T03:23:07.263Z,75.58
2023-04-12T03:25:35.104Z,75.44
2023-04-12T03:28:03.302Z,75.46
2023-04-12T03:30:31.961Z,75.44
2023-04-12T03:33:00.089Z,75.37
2023-04-12T03:35:28.276Z,75.47
2023-04-12T03:37:58.806Z,75.43
2023-04-12T03:40:26.622Z,75.34
2023-04-12T03:42:54.574Z,75.43
2023-04-12T03:45:22.342Z,75.65
2023-04-12T03:47:50.182Z,75.62
2023-04-12T03:50:26.480Z,75.70
2023-04-12T03:52:54.365Z,75.49
2023-04-12T03:55:22.495Z,75.50
2023-04-12T03:57:50.348Z,75.72
2023-04-12T04:00:18.244Z,75.51
2023-04-12T04:02:47.462Z,75.45
2023-04-12T04:05:15.572Z,75.39
2023-04-12T04:07:43.585Z,75.24
2023-04-12T04:10:11.748Z,75.39
2023-04-12T04:12:39.630Z,75.23
2023-04-12T04:15:07.938Z,75.44
2023-04-12T04:17:36.163Z,75.47
2023-04-12T04:20:05.811Z,75.47
2023-04-12T04:22:33.621Z,75.33
2023-04-12T04:25:02.503Z,75.54
2023-04-12T04:27:30.743Z,75.52
2023-04-12T04:29:59.754Z,75.50
2023-04-12T04:32:27.623Z,75.37
2023-04-12T04:35:00.157Z,75.57
2023-04-12T04:37:30.676Z,75.63
2023-04-12T04:39:59.094Z,75.71
2023-04-12T04:42:26.864Z,75.67
2023-04-12T04:45:03.134Z,75.64
2023-04-12T04:47:31.080Z,75.90
2023-04-12T04:50:00.064Z,75.77
2023-04-12T04:52:27.964Z,75.77
2023-04-12T04:54:57.962Z,75.97
2023-04-12T04:57:26.854Z,76.21
2023-04-12T04:59:57.410Z,76.13
2023-04-12T05:02:26.377Z,76.38
2023-04-12T05:04:56.681Z,76.32
2023-04-12T05:07:26.092Z,76.53
2023-04-12T05:09:53.916Z,76.51
2023-04-12T05:12:21.910Z,76.68
2023-04-12T05:14:51.651Z,76.53
2023-04-12T05:17:20.204Z,76.60
2023-04-12T05:19:48.709Z,76.82
2023-04-12T05:22:20.607Z,76.81
2023-04-12T05:24:49.403Z,76.75
2023-04-12T05:27:17.741Z,76.90
2023-04-12T05:29:45.998Z,76.96
2023-04-12T05:32:13.874Z,76.96
2023-04-12T05:34:42.333Z,77.17
2023-04-12T05:37:10.142Z,77.12
2023-04-12T05:39:39.293Z,77.15
2023-04-12T05:42:07.329Z,76.98
2023-04-12T05:44:37.277Z,77.00
2023-04-12T05:47:05.457Z,77.10
2023-04-12T05:49:33.661Z,76.80
2023-04-12T05:52:02.598Z,76.73
2023-04-12T05:54:30.600Z,76.84
2023-04-12T05:56:58.721Z,76.85
2023-04-12T05:59:26.552Z,76.95
2023-04-12T06:01:55.168Z,76.64
2023-04-12T06:04:26.342Z,76.61
2023-04-12T06:06:57.926Z,76.54
2023-04-12T06:09:26.438Z,76.64
2023-04-12T06:11:54.181Z,76.69
2023-04-12T06:14:22.086Z,76.60
2023-04-12T06:16:51.682Z,76.45
2023-04-12T06:19:19.404Z,76.57
2023-04-12T06:21:47.561Z,76.45
2023-04-12T06:24:16.431Z,76.57
2023-04-12T06:26:47.041Z,76.61
2023-04-12T06:29:15.004Z,76.48
2023-04-12T06:31:43.285Z,76.61
2023-04-12T06:34:11.129Z,76.31
2023-04-12T06:36:41.695Z,76.47
2023-04-12T06:39:09.734Z,76.37
2023-04-12T06:41:37.583Z,76.33
2023-04-12T06:44:06.390Z,76.10
2023-04-12T06:46:34.332Z,76.53
2023-04-12T06:49:02.329Z,76.68
2023-04-12T06:51:31.116Z,76.51
2023-04-12T06:53:58.924Z,76.38
2023-04-12T06:56:26.835Z,76.25
2023-04-12T06:58:54.750Z,76.29
2023-04-12T07:01:22.684Z,76.26
2023-04-12T07:03:50.767Z,76.33
2023-04-12T07:06:25.180Z,76.18
2023-04-12T07:08:54.518Z,76.28
2023-04-12T07:11:23.386Z,76.25
2023-04-12T07:13:51.718Z,76.28
2023-04-12T07:16:20.498Z,76.27
2023-04-12T07:18:48.613Z,76.34
2023-04-12T07:21:17.831Z,76.30
2023-04-12T07:23:46.988Z,76.22
2023-04-12T07:26:14.824Z,76.52
2023-04-12T07:28:42.667Z,76.51
2023-04-12T07:31:11.279Z,76.37
2023-04-12T07:33:40.741Z,76.50
2023-04-12T07:36:11.761Z,76.29
2023-04-12T07:38:39.943Z,76.38
2023-04-12T07:41:08.240Z,76.23
2023-04-12T07:43:36.123Z,76.18
2023-04-12T07:46:08.916Z,76.16
2023-04-12T07:48:37.374Z,76.10
2023-04-12T07:51:05.943Z,75.77
2023-04-12T07:53:33.848Z,75.88
2023-04-12T07:56:05.250Z,76.18
2023-04-12T07:58:34.068Z,75.82
2023-04-12T08:01:01.908Z,76.46
2023-04-12T08:03:29.893Z,76.35
2023-04-12T08:05:57.721Z,75.84
2023-04-12T08:08:26.121Z,75.95
2023-04-12T08:10:54.272Z,75.72
2023-04-12T08:13:22.327Z,75.66
2023-04-12T08:15:50.318Z,75.78
2023-04-12T08:18:18.694Z,75.72
2023-04-12T08:20:49.402Z,75.50
2023-04-12T08:23:17.378Z,74.66
2023-04-12T08:25:45.508Z,74.56
2023-04-12T08:28:13.584Z,74.54
2023-04-12T08:30:43.797Z,73.88
2023-04-12T08:33:11.572Z,73.76
2023-04-12T08:35:40.142Z,74.05
2023-04-12T08:38:08.221Z,74.10
2023-04-12T08:40:36.063Z,74.51
2023-04-12T08:43:07.740Z,74.62
2023-04-12T08:45:36.596Z,74.29
2023-04-12T08:48:07.476Z,74.19
2023-04-12T08:50:35.501Z,73.41
2023-04-12T08:53:03.785Z,73.00
2023-04-12T08:55:31.928Z,73.24
2023-04-12T08:58:00.294Z,73.72
2023-04-12T09:00:28.447Z,72.85
2023-04-12T09:02:56.447Z,71.77
2023-04-12T09:05:30.135Z,72.27
2023-04-12T09:07:58.348Z,71.34
2023-04-12T09:10:39.779Z,71.78
2023-04-12T09:13:07.716Z,70.64
2023-04-12T09:15:36.499Z,71.15
2023-04-12T09:18:09.589Z,71.31
2023-04-12T09:20:40.457Z,70.90
2023-04-12T09:23:26.759Z,69.02
2023-04-12T09:25:55.406Z,69.12
2023-04-12T09:28:28.349Z,69.74
2023-04-12T09:31:00.762Z,69.75
2023-04-12T09:33:34.706Z,69.81
2023-04-12T09:36:04.744Z,68.45
2023-04-12T09:38:33.657Z,68.72
2023-04-12T09:41:26.942Z,68.83
2023-04-12T09:43:55.494Z,68.82
2023-04-12T09:46:23.478Z,68.03
2023-04-12T09:48:53.443Z,69.16
2023-04-12T09:51:39.622Z,69.68
2023-04-12T09:54:09.135Z,69.77
2023-04-12T09:56:40.011Z,68.81
2023-04-12T09:59:08.731Z,68.45
2023-04-12T10:01:39.922Z,69.13
2023-04-12T10:04:09.420Z,69.44
2023-04-12T10:06:39.006Z,69.53
2023-04-12T10:09:08.828Z,69.76
2023-04-12T10:11:42.162Z,69.15
2023-04-12T10:14:10.202Z,68.58
2023-04-12T10:16:41.775Z,67.63
2023-04-12T10:19:13.803Z,67.36
2023-04-12T10:21:42.836Z,67.85
2023-04-12T10:24:11.042Z,67.67
2023-04-12T10:26:43.464Z,67.25
2023-04-12T10:29:31.263Z,66.95
2023-04-12T10:32:19.968Z,67.32
2023-04-12T10:34:54.059Z,66.30
2023-04-12T10:37:23.048Z,65.04
2023-04-12T10:39:55.139Z,65.20
2023-04-12T10:42:24.155Z,64.88
2023-04-12T10:44:58.751Z,64.29
2023-04-12T10:47:51.024Z,64.59
2023-04-12T10:50:25.227Z,64.03
2023-04-12T10:53:13.351Z,65.54
2023-04-12T10:55:45.696Z,64.82
2023-04-12T10:58:49.348Z,63.91
2023-04-12T11:01:18.943Z,64.31
2023-04-12T11:04:06.037Z,63.81
2023-04-12T11:07:07.544Z,64.44
2023-04-12T11:09:43.498Z,63.32
2023-04-12T11:12:13.718Z,63.27
2023-04-12T11:14:52.659Z,62.91
2023-04-12T11:17:21.967Z,62.53
2023-04-12T11:19:54.250Z,63.27
2023-04-12T11:22:24.309Z,63.70
2023-04-12T11:24:54.465Z,62.70
2023-04-12T11:27:29.190Z,63.22
2023-04-12T11:30:03.705Z,62.72
2023-04-12T11:32:31.760Z,62.03
2023-04-12T11:34:59.975Z,61.88
2023-04-12T11:37:28.990Z,63.06
2023-04-12T11:40:04.418Z,63.13
2023-04-12T11:42:32.872Z,61.90
2023-04-12T11:45:06.065Z,60.63
2023-04-12T11:47:35.390Z,61.08
2023-04-12T11:50:04.023Z,61.47
2023-04-12T11:52:33.494Z,61.28
2023-04-12T11:55:06.737Z,61.47
2023-04-12T11:57:35.468Z,62.17
2023-04-12T12:00:06.892Z,61.84
2023-04-12T12:02:41.110Z,60.41
2023-04-12T12:05:14.874Z,60.62
2023-04-12T12:07:43.719Z,59.52
2023-04-12T12:10:13.299Z,58.16
2023-04-12T12:12:45.910Z,58.77
2023-04-12T12:15:15.803Z,60.39
2023-04-12T12:17:43.963Z,60.71
2023-04-12T12:20:21.893Z,60.52
2023-04-12T12:22:50.463Z,60.44
2023-04-12T12:25:19.244Z,59.78
2023-04-12T12:27:51.425Z,58.63
2023-04-12T12:30:20.842Z,59.52
2023-04-12T12:32:50.959Z,60.29
2023-04-12T12:35:19.760Z,59.19
2023-04-12T12:37:52.629Z,58.64
2023-04-12T12:40:29.575Z,59.63
2023-04-12T12:42:57.909Z,59.09
2023-04-12T12:45:28.115Z,58.67
2023-04-12T12:48:04.008Z,58.64
2023-04-12T12:50:33.947Z,57.11
2023-04-12T12:53:02.787Z,58.44
2023-04-12T12:55:31.792Z,57.83
2023-04-12T13:00:31.832Z,58.84
2023-04-12T13:02:59.911Z,58.61
2023-04-12T13:05:28.293Z,58.37
2023-04-12T13:07:56.245Z,56.59
2023-04-12T13:10:24.343Z,56.46
2023-04-12T13:12:52.554Z,57.24
2023-04-12T13:15:23.846Z,56.87
2023-04-12T13:17:53.076Z,56.05
2023-04-12T13:20:22.426Z,56.28
2023-04-12T13:22:52.335Z,57.50
2023-04-12T13:25:21.222Z,56.32
2023-04-12T13:27:49.559Z,56.39
2023-04-12T13:30:20.562Z,56.21
2023-04-12T13:32:48.712Z,56.37
2023-04-12T13:35:16.593Z,56.13
2023-04-12T13:37:44.475Z,55.12
2023-04-12T13:40:12.409Z,55.73
2023-04-12T13:42:40.479Z,56.30
2023-04-12T13:45:11.369Z,56.87
2023-04-12T13:47:39.511Z,56.45
2023-04-12T13:50:08.089Z,56.12
2023-04-12T13:52:35.815Z,56.66
2023-04-12T13:55:08.462Z,56.14
2023-04-12T13:57:36.607Z,56.61
2023-04-12T14:00:05.141Z,56.72
2023-04-12T14:02:33.056Z,56.39
2023-04-12T14:05:01.197Z,56.35
2023-04-12T14:07:29.588Z,56.27
2023-04-12T14:09:57.983Z,55.98
2023-04-12T14:12:25.778Z,55.39
2023-04-12T14:14:53.667Z,55.26
2023-04-12T14:17:21.958Z,54.73
2023-04-12T14:19:51.300Z,55.52
2023-04-12T14:22:19.024Z,54.34
2023-04-12T14:24:47.091Z,54.62
2023-04-12T14:27:17.868Z,54.06
2023-04-12T14:29:46.659Z,53.84
2023-04-12T14:32:14.712Z,53.57
2023-04-12T14:34:43.586Z,54.13
2023-04-12T14:37:11.864Z,54.17
2023-04-12T14:39:39.681Z,54.68
2023-04-12T14:42:07.799Z,54.94
2023-04-12T14:44:35.818Z,53.55
2023-04-12T14:47:03.830Z,53.87
2023-04-12T14:49:33.432Z,54.43
2023-04-12T14:52:02.142Z,53.98
2023-04-12T14:54:30.403Z,54.38
2023-04-12T14:56:59.929Z,54.41
2023-04-12T14:59:27.847Z,53.93
2023-04-12T15:01:55.959Z,53.97
2023-04-12T15:04:24.032Z,54.37
2023-04-12T15:06:52.038Z,54.37
2023-04-12T15:09:21.406Z,54.15
2023-04-12T15:11:50.619Z,54.18
2023-04-12T15:14:20.601Z,53.85
2023-04-12T15:16:51.588Z,53.13
2023-04-12T15:19:23.136Z,53.86
2023-04-12T15:21:52.464Z,53.34
2023-04-12T15:24:22.290Z,53.43
2023-04-12T15:26:52.835Z,53.65
2023-04-12T15:29:22.657Z,53.75
2023-04-12T15:31:51.010Z,53.32
2023-04-12T15:34:19.626Z,53.71
2023-04-12T15:36:47.728Z,53.40
2023-04-12T15:39:15.492Z,53.46
2023-04-12T15:41:43.858Z,53.96
2023-04-12T15:44:13.566Z,52.45
2023-04-12T15:46:42.031Z,53.51
2023-04-12T15:49:10.853Z,53.26
2023-04-12T15:51:39.178Z,53.47
2023-04-12T15:54:07.243Z,53.62
2023-04-12T15:56:35.725Z,53.74
2023-04-12T15:59:04.187Z,53.69
2023-04-12T16:01:32.133Z,54.07
2023-04-12T16:04:00.251Z,53.47
2023-04-12T16:06:30.796Z,53.60
2023-04-12T16:08:58.814Z,53.90
2023-04-12T16:11:27.807Z,54.12
2023-04-12T16:13:56.501Z,54.10
2023-04-12T16:16:24.520Z,53.79
2023-04-12T16:18:53.581Z,53.83
2023-04-12T16:21:23.467Z,54.01
2023-04-12T16:23:51.448Z,54.53
2023-04-12T16:26:22.183Z,54.54
2023-04-12T16:28:54.713Z,54.33
2023-04-12T16:31:25.432Z,54.47
2023-04-12T16:33:54.085Z,54.47
2023-04-12T16:36:27.234Z,54.46
2023-04-12T16:38:56.261Z,54.82
2023-04-12T16:41:24.220Z,54.86
2023-04-12T16:43:54.037Z,54.85
2023-04-12T16:46:22.526Z,54.79
2023-04-12T16:48:50.487Z,54.86
2023-04-12T16:51:18.346Z,54.96
2023-04-12T16:53:47.003Z,54.94
2023-04-12T16:56:14.924Z,54.99
2023-04-12T16:58:42.720Z,54.67
2023-04-12T17:01:10.905Z,55.64
2023-04-12T17:03:38.949Z,55.40
2023-04-12T17:06:07.614Z,55.67
2023-04-12T17:08:35.890Z,55.24
2023-04-12T17:11:03.765Z,55.37
2023-04-12T17:13:31.724Z,55.14
2023-04-12T17:15:59.573Z,55.50
2023-04-12T17:18:27.507Z,55.42
2023-04-12T17:20:56.138Z,55.74
2023-04-12T17:23:24.396Z,55.40
2023-04-12T17:25:52.425Z,55.17
2023-04-12T17:28:20.320Z,55.35
2023-04-12T17:30:48.610Z,55.83
2023-04-12T17:33:18.439Z,55.77
2023-04-12T17:35:46.793Z,55.99
2023-04-12T17:38:14.576Z,56.00
2023-04-12T17:40:42.542Z,56.28
2023-04-12T17:43:10.462Z,56.15
2023-04-12T17:45:38.733Z,55.61
2023-04-12T17:48:08.954Z,56.21
2023-04-12T17:50:36.780Z,56.38
2023-04-12T17:53:04.648Z,56.61
2023-04-12T17:55:32.792Z,56.43
2023-04-12T17:58:00.718Z,56.56
2023-04-12T18:00:28.565Z,56.98
2023-04-12T18:02:57.171Z,57.04
2023-04-12T18:05:25.676Z,56.59
2023-04-12T18:07:53.496Z,56.80
2023-04-12T18:10:23.358Z,57.01
2023-04-12T18:12:51.434Z,56.98
2023-04-12T18:15:20.041Z,57.22
2023-04-12T18:17:47.988Z,57.28
2023-04-12T18:20:16.581Z,57.28
2023-04-12T18:22:45.945Z,57.33
2023-04-12T18:25:14.102Z,57.19
2023-04-12T18:27:42.552Z,56.79
2023-04-12T18:30:10.682Z,57.01
2023-04-12T18:32:38.747Z,56.94
2023-04-12T18:35:07.736Z,56.88
2023-04-12T18:37:37.095Z,56.95
2023-04-12T18:40:08.933Z,57.06
2023-04-12T18:42:36.982Z,56.64
2023-04-12T18:45:05.663Z,56.88
2023-04-12T18:47:33.775Z,57.07
2023-04-12T18:50:01.748Z,56.51
2023-04-12T18:52:29.823Z,56.60
2023-04-12T18:54:57.794Z,56.29
2023-04-12T18:57:25.712Z,56.47
2023-04-12T18:59:54.006Z,56.51
2023-04-12T19:02:22.554Z,56.47
2023-04-12T19:04:50.664Z,56.56
2023-04-12T19:07:19.145Z,56.59
2023-04-12T19:09:47.286Z,56.65
2023-04-12T19:12:15.621Z,55.99
2023-04-12T19:14:43.420Z,56.52
2023-04-12T19:17:11.651Z,56.50
2023-04-12T19:19:39.433Z,56.72
2023-04-12T19:22:07.499Z,56.51
2023-04-12T19:24:36.264Z,56.53
2023-04-12T19:27:04.525Z,56.13
2023-04-12T19:29:32.615Z,56.31
2023-04-12T19:32:02.443Z,56.09
2023-04-12T19:34:30.719Z,56.38
2023-04-12T19:36:59.330Z,56.19
2023-04-12T19:39:27.420Z,56.14
2023-04-12T19:41:56.473Z,56.09
2023-04-12T19:44:26.177Z,55.99
2023-04-12T19:46:54.115Z,56.24
2023-04-12T19:49:23.142Z,56.09
2023-04-12T19:51:51.298Z,55.88
2023-04-12T19:54:23.614Z,55.76
2023-04-12T19:56:54.133Z,55.87
2023-04-12T19:59:24.132Z,56.01
2023-04-12T20:01:52.392Z,56.04
2023-04-12T20:04:21.937Z,56.00
2023-04-12T20:06:52.381Z,56.18
2023-04-12T20:09:24.098Z,56.15
2023-04-12T20:11:52.629Z,56.31
2023-04-12T20:14:20.764Z,56.46
2023-04-12T20:16:50.121Z,56.58
2023-04-12T20:19:18.269Z,56.59
2023-04-12T20:21:47.598Z,56.59
2023-04-12T20:24:15.569Z,56.71
2023-04-12T20:26:46.692Z,56.92
2023-04-12T20:29:15.066Z,56.74
2023-04-12T20:31:43.775Z,57.08
2023-04-12T20:34:12.043Z,57.03
2023-04-12T20:36:41.391Z,57.22
2023-04-12T20:39:10.582Z,57.26
2023-04-12T20:41:39.261Z,57.38
2023-04-12T20:44:07.149Z,57.45
2023-04-12T20:46:37.214Z,57.55
2023-04-12T20:49:06.874Z,57.59
2023-04-12T20:51:34.771Z,57.40
2023-04-12T20:54:03.336Z,57.70
2023-04-12T20:56:32.314Z,57.75
2023-04-12T20:59:00.831Z,57.78
2023-04-12T21:01:29.306Z,57.84
2023-04-12T21:03:59.652Z,58.11
2023-04-12T21:06:28.470Z,58.06
2023-04-12T21:08:56.595Z,58.04
2023-04-12T21:11:27.553Z,58.24
2023-04-12T21:13:55.531Z,58.31
2023-04-12T21:16:25.729Z,58.38
2023-04-12T21:18:54.791Z,58.28
2023-04-12T21:21:22.647Z,58.34
2023-04-12T21:23:52.013Z,58.40
2023-04-12T21:26:20.800Z,58.47
2023-04-12T21:28:48.802Z,58.43
2023-04-12T21:31:17.551Z,58.42
2023-04-12T21:33:45.723Z,58.35
2023-04-12T21:36:14.499Z,58.78
2023-04-12T21:38:42.638Z,58.80
2023-04-12T21:41:11.601Z,58.50
2023-04-12T21:43:40.194Z,58.63
2023-04-12T21:46:08.401Z,58.56
2023-04-12T21:48:36.923Z,58.41
2023-04-12T21:51:05.180Z,58.54
2023-04-12T21:53:33.382Z,58.54
2023-04-12T21:56:01.684Z,58.59
2023-04-12T21:58:30.268Z,58.59
2023-04-12T22:00:58.472Z,58.76
2023-04-12T22:03:29.586Z,58.70
2023-04-12T22:06:04.235Z,58.88
2023-04-12T22:08:33.481Z,58.88
2023-04-12T22:11:01.663Z,58.87
2023-04-12T22:13:30.968Z,58.98
2023-04-12T22:16:00.882Z,58.96
2023-04-12T22:18:29.154Z,58.99
2023-04-12T22:20:58.011Z,59.19
2023-04-12T22:23:26.220Z,59.14
2023-04-12T22:25:58.502Z,59.23
2023-04-12T22:28:27.115Z,59.25
2023-04-12T22:30:57.262Z,59.41
2023-04-12T22:33:25.279Z,59.38
2023-04-12T22:35:53.360Z,59.33
2023-04-12T22:38:21.412Z,59.33
2023-04-12T22:40:49.666Z,59.32
2023-04-12T22:43:21.074Z,59.31
2023-04-12T22:45:49.195Z,59.37
2023-04-12T22:48:17.002Z,59.30
2023-04-12T22:50:45.443Z,59.45
2023-04-12T22:53:14.251Z,59.74
2023-04-12T22:55:42.588Z,59.53
2023-04-12T22:58:10.313Z,59.50
2023-04-12T23:00:39.558Z,59.52
2023-04-12T23:03:11.333Z,59.56
2023-04-12T23:05:44.698Z,59.45
2023-04-12T23:08:18.226Z,59.62
2023-04-12T23:10:46.347Z,59.73
2023-04-12T23:13:14.100Z,59.56
2023-04-12T23:15:45.743Z,59.42
2023-04-12T23:18:13.596Z,59.45
2023-04-12T23:20:44.943Z,59.45
2023-04-12T23:23:13.880Z,59.77
2023-04-12T23:25:42.880Z,59.33
2023-04-12T23:28:15.899Z,59.62
2023-04-12T23:30:51.348Z,59.38
2023-04-12T23:33:21.376Z,59.39
2023-04-12T23:35:52.819Z,59.77
2023-04-12T23:38:32.621Z,59.46
2023-04-12T23:41:02.525Z,59.26
2023-04-12T23:43:32.682Z,59.62
2023-04-12T23:46:03.358Z,59.43
2023-04-12T23:48:32.531Z,59.41
2023-04-12T23:51:00.553Z,59.37
2023-04-12T23:53:28.339Z,59.38
2023-04-12T23:55:56.751Z,59.28
2023-04-12T23:58:26.227Z,59.25
